createdAt,value
2018-03-25T00:00:17.762Z,8
2018-03-25T00:01:18.059Z,8.05
2018-03-25T00:02:17.793Z,8.01
2018-03-25T00:03:17.802Z,8
2018-03-25T00:04:18.103Z,8.01
2018-03-25T00:05:18.116Z,7.97
2018-03-25T00:06:17.842Z,7.95
2018-03-25T00:07:18.134Z,8.05
2018-03-25T00:08:18.153Z,8.01
2018-03-25T00:09:17.593Z,8.03
2018-03-25T00:10:17.607Z,8.03
2018-03-25T00:11:18.191Z,7.94
2018-03-25T00:12:18.212Z,7.93
2018-03-25T00:13:18.226Z,7.91
2018-03-25T00:14:18.231Z,7.91
2018-03-25T00:15:17.954Z,7.91
2018-03-25T00:16:18.249Z,7.91
2018-03-25T00:17:18.272Z,7.83
2018-03-25T00:18:18.282Z,7.93
2018-03-25T00:19:18.005Z,7.85
2018-03-25T00:20:18.300Z,7.85
2018-03-25T00:21:17.746Z,7.83
2018-03-25T00:22:18.326Z,7.79
2018-03-25T00:23:18.348Z,7.79
2018-03-25T00:24:18.357Z,7.7
2018-03-25T00:25:18.080Z,7.79
2018-03-25T00:26:18.098Z,7.79
2018-03-25T00:27:18.105Z,7.77
2018-03-25T00:28:18.407Z,7.82
2018-03-25T00:29:18.420Z,7.83
2018-03-25T00:30:18.428Z,7.79
2018-03-25T00:31:18.449Z,7.79
2018-03-25T00:32:18.455Z,7.69
2018-03-25T00:33:18.642Z,7.73
2018-03-25T00:34:17.914Z,7.67
2018-03-25T00:35:18.501Z,7.7
2018-03-25T00:36:18.222Z,7.75
2018-03-25T00:37:18.518Z,7.69
2018-03-25T00:38:18.526Z,7.76
2018-03-25T00:39:17.974Z,7.72
2018-03-25T00:40:18.273Z,7.73
2018-03-25T00:41:18.290Z,7.72
2018-03-25T00:42:18.596Z,7.7
2018-03-25T00:43:18.597Z,7.58
2018-03-25T00:44:18.035Z,7.66
2018-03-25T00:45:18.617Z,7.66
2018-03-25T00:46:18.629Z,7.66
2018-03-25T00:47:18.363Z,7.66
2018-03-25T00:48:18.657Z,7.69
2018-03-25T00:49:18.671Z,7.58
2018-03-25T00:50:18.396Z,7.57
2018-03-25T00:51:18.694Z,7.61
2018-03-25T00:52:18.713Z,7.63
2018-03-25T00:53:18.718Z,7.57
2018-03-25T00:54:18.446Z,7.45
2018-03-25T00:55:18.743Z,7.45
2018-03-25T00:56:18.753Z,7.5
2018-03-25T00:57:18.483Z,7.57
2018-03-25T00:58:18.496Z,7.5
2018-03-25T00:59:18.793Z,7.51
2018-03-25T01:00:18.517Z,7.53
2018-03-25T01:01:18.543Z,7.48
2018-03-25T01:02:18.829Z,7.53
2018-03-25T01:03:18.558Z,7.47
2018-03-25T01:04:18.573Z,7.54
2018-03-25T01:05:18.583Z,7.5
2018-03-25T01:06:18.598Z,7.42
2018-03-25T01:07:18.326Z,7.45
2018-03-25T01:08:18.625Z,7.48
2018-03-25T01:09:18.925Z,7.47
2018-03-25T01:10:18.647Z,7.48
2018-03-25T01:11:18.944Z,7.39
2018-03-25T01:12:18.684Z,7.39
2018-03-25T01:13:18.962Z,7.39
2018-03-25T01:14:18.693Z,7.47
2018-03-25T01:15:18.992Z,7.38
2018-03-25T01:16:18.716Z,7.45
2018-03-25T01:17:19.012Z,7.43
2018-03-25T01:18:19.027Z,7.42
2018-03-25T01:19:18.766Z,7.39
2018-03-25T01:20:18.770Z,7.28
2018-03-25T01:21:19.068Z,7.36
2018-03-25T01:22:19.087Z,7.39
2018-03-25T01:23:18.802Z,7.35
2018-03-25T01:24:18.821Z,7.38
2018-03-25T01:25:18.826Z,7.28
2018-03-25T01:26:18.846Z,7.28
2018-03-25T01:27:18.852Z,7.31
2018-03-25T01:28:18.875Z,7.31
2018-03-25T01:29:18.879Z,7.31
2018-03-25T01:30:18.893Z,7.28
2018-03-25T01:31:19.182Z,7.32
2018-03-25T01:32:18.921Z,7.36
2018-03-25T01:33:19.204Z,7.32
2018-03-25T01:34:19.220Z,7.23
2018-03-25T01:35:18.665Z,7.25
2018-03-25T01:36:18.967Z,7.24
2018-03-25T01:37:18.972Z,7.18
2018-03-25T01:38:19.270Z,7.21
2018-03-25T01:39:19.286Z,7.18
2018-03-25T01:40:19.013Z,7.21
2018-03-25T01:41:19.307Z,7.21
2018-03-25T01:42:18.753Z,7.14
2018-03-25T01:43:19.340Z,7.17
2018-03-25T01:44:19.062Z,7.2
2018-03-25T01:45:19.351Z,7.18
2018-03-25T01:46:19.383Z,7.2
2018-03-25T01:47:18.811Z,7.21
2018-03-25T01:48:19.108Z,7.18
2018-03-25T01:49:18.834Z,7.18
2018-03-25T01:50:19.414Z,7.17
2018-03-25T01:51:19.143Z,7.15
2018-03-25T01:52:19.439Z,7.17
2018-03-25T01:53:19.173Z,7.21
2018-03-25T01:54:19.179Z,7.17
2018-03-25T01:55:19.479Z,7.14
2018-03-25T01:56:19.204Z,7.06
2018-03-25T01:57:19.214Z,7.18
2018-03-25T01:58:19.227Z,7.2
2018-03-25T01:59:19.238Z,7.18
2018-03-25T02:00:19.531Z,7.13
2018-03-25T02:01:19.263Z,7.15
2018-03-25T02:02:18.996Z,7.14
2018-03-25T02:03:19.571Z,7.17
2018-03-25T02:04:19.583Z,7.14
2018-03-25T02:05:19.034Z,7.1
2018-03-25T02:06:19.609Z,7.1
2018-03-25T02:07:19.620Z,7.17
2018-03-25T02:08:19.069Z,7.06
2018-03-25T02:09:19.641Z,7.13
2018-03-25T02:10:19.374Z,7.1
2018-03-25T02:11:19.104Z,7.03
2018-03-25T02:12:19.735Z,7
2018-03-25T02:13:19.414Z,7
2018-03-25T02:14:19.710Z,7.03
2018-03-25T02:15:19.724Z,7.03
2018-03-25T02:16:19.442Z,7.02
2018-03-25T02:17:19.787Z,7.07
2018-03-25T02:18:19.816Z,6.99
2018-03-25T02:19:19.764Z,7.06
2018-03-25T02:20:19.494Z,7.06
2018-03-25T02:21:19.788Z,7.05
2018-03-25T02:22:19.519Z,7.05
2018-03-25T02:23:19.814Z,7.06
2018-03-25T02:24:19.549Z,6.97
2018-03-25T02:25:19.294Z,7
2018-03-25T02:26:19.844Z,6.99
2018-03-25T02:27:19.863Z,6.92
2018-03-25T02:28:19.879Z,7
2018-03-25T02:29:19.597Z,6.92
2018-03-25T02:30:19.616Z,6.88
2018-03-25T02:31:19.907Z,6.92
2018-03-25T02:32:19.688Z,6.92
2018-03-25T02:33:19.951Z,6.88
2018-03-25T02:34:19.381Z,6.89
2018-03-25T02:35:19.679Z,6.95
2018-03-25T02:36:19.976Z,6.96
2018-03-25T02:37:19.749Z,6.93
2018-03-25T02:38:19.710Z,6.88
2018-03-25T02:39:20.011Z,6.88
2018-03-25T02:40:19.735Z,6.92
2018-03-25T02:41:20.033Z,6.92
2018-03-25T02:42:19.825Z,6.89
2018-03-25T02:43:19.773Z,6.92
2018-03-25T02:44:20.069Z,6.85
2018-03-25T02:45:20.079Z,6.88
2018-03-25T02:46:20.093Z,6.85
2018-03-25T02:47:20.106Z,6.87
2018-03-25T02:48:20.123Z,6.85
2018-03-25T02:49:19.838Z,6.89
2018-03-25T02:50:20.135Z,6.84
2018-03-25T02:51:19.863Z,6.85
2018-03-25T02:52:20.218Z,6.85
2018-03-25T02:53:20.178Z,6.87
2018-03-25T02:54:19.908Z,6.78
2018-03-25T02:55:19.911Z,6.81
2018-03-25T02:56:19.917Z,6.81
2018-03-25T02:57:20.273Z,6.87
2018-03-25T02:58:19.951Z,6.77
2018-03-25T02:59:20.242Z,6.75
2018-03-25T03:00:20.256Z,6.88
2018-03-25T03:01:20.275Z,6.82
2018-03-25T03:02:20.001Z,6.84
2018-03-25T03:03:20.002Z,6.81
2018-03-25T03:04:20.310Z,6.82
2018-03-25T03:05:20.036Z,6.82
2018-03-25T03:06:20.053Z,6.79
2018-03-25T03:07:20.338Z,6.79
2018-03-25T03:08:19.778Z,6.77
2018-03-25T03:09:20.083Z,6.79
2018-03-25T03:10:20.369Z,6.77
2018-03-25T03:11:20.097Z,6.7
2018-03-25T03:12:20.163Z,6.74
2018-03-25T03:13:20.399Z,6.75
2018-03-25T03:14:19.850Z,6.75
2018-03-25T03:15:20.430Z,6.78
2018-03-25T03:16:20.155Z,6.69
2018-03-25T03:17:20.449Z,6.77
2018-03-25T03:18:20.175Z,6.79
2018-03-25T03:19:20.189Z,6.72
2018-03-25T03:20:20.205Z,6.66
2018-03-25T03:21:20.212Z,6.72
2018-03-25T03:22:20.225Z,6.69
2018-03-25T03:23:20.251Z,6.69
2018-03-25T03:24:20.539Z,6.69
2018-03-25T03:25:20.546Z,6.69
2018-03-25T03:26:20.562Z,6.69
2018-03-25T03:27:20.298Z,6.67
2018-03-25T03:28:20.298Z,6.69
2018-03-25T03:29:20.593Z,6.74
2018-03-25T03:30:20.317Z,6.7
2018-03-25T03:31:20.045Z,6.72
2018-03-25T03:32:20.671Z,6.7
2018-03-25T03:33:20.638Z,6.66
2018-03-25T03:34:20.370Z,6.59
2018-03-25T03:35:20.377Z,6.7
2018-03-25T03:36:20.390Z,6.63
2018-03-25T03:37:20.727Z,6.7
2018-03-25T03:38:20.412Z,6.64
2018-03-25T03:39:20.718Z,6.67
2018-03-25T03:40:20.433Z,6.81
2018-03-25T03:41:20.447Z,6.67
2018-03-25T03:42:20.847Z,6.67
2018-03-25T03:43:20.752Z,6.6
2018-03-25T03:44:20.481Z,6.66
2018-03-25T03:45:20.778Z,6.69
2018-03-25T03:46:20.501Z,6.63
2018-03-25T03:47:20.798Z,6.6
2018-03-25T03:48:20.526Z,6.62
2018-03-25T03:49:20.539Z,6.63
2018-03-25T03:50:20.842Z,6.62
2018-03-25T03:51:20.565Z,6.64
2018-03-25T03:52:20.572Z,6.64
2018-03-25T03:53:20.869Z,6.63
2018-03-25T03:54:20.886Z,6.63
2018-03-25T03:55:20.892Z,6.62
2018-03-25T03:56:20.899Z,6.62
2018-03-25T03:57:20.910Z,6.62
2018-03-25T03:58:20.358Z,6.63
2018-03-25T03:59:20.656Z,6.6
2018-03-25T04:00:20.666Z,6.64
2018-03-25T04:01:20.960Z,6.52
2018-03-25T04:02:20.684Z,6.59
2018-03-25T04:03:20.977Z,6.59
2018-03-25T04:04:21.050Z,6.54
2018-03-25T04:05:21.004Z,6.57
2018-03-25T04:06:20.450Z,6.51
2018-03-25T04:07:20.795Z,6.54
2018-03-25T04:08:20.472Z,6.56
2018-03-25T04:09:21.064Z,6.49
2018-03-25T04:10:20.777Z,6.51
2018-03-25T04:11:21.077Z,6.48
2018-03-25T04:12:21.082Z,6.56
2018-03-25T04:13:20.812Z,6.48
2018-03-25T04:14:20.831Z,6.49
2018-03-25T04:15:21.124Z,6.63
2018-03-25T04:16:20.865Z,6.62
2018-03-25T04:17:20.859Z,6.52
2018-03-25T04:18:20.586Z,6.51
2018-03-25T04:19:20.886Z,6.59
2018-03-25T04:20:21.186Z,6.59
2018-03-25T04:21:20.904Z,6.59
2018-03-25T04:22:21.249Z,6.62
2018-03-25T04:23:20.928Z,6.59
2018-03-25T04:24:21.243Z,6.57
2018-03-25T04:25:20.953Z,6.52
2018-03-25T04:26:20.679Z,6.54
2018-03-25T04:27:21.260Z,6.57
2018-03-25T04:28:20.984Z,6.51
2018-03-25T04:29:21.277Z,6.48
2018-03-25T04:30:21.295Z,6.48
2018-03-25T04:31:21.015Z,6.48
2018-03-25T04:32:21.045Z,6.51
2018-03-25T04:33:20.756Z,6.46
2018-03-25T04:34:21.338Z,6.49
2018-03-25T04:35:21.362Z,6.45
2018-03-25T04:36:21.361Z,6.49
2018-03-25T04:37:21.378Z,6.51
2018-03-25T04:38:21.097Z,6.51
2018-03-25T04:39:21.109Z,6.48
2018-03-25T04:40:21.414Z,6.31
2018-03-25T04:41:21.415Z,6.46
2018-03-25T04:42:21.145Z,6.31
2018-03-25T04:43:21.435Z,6.36
2018-03-25T04:44:21.447Z,6.41
2018-03-25T04:45:21.468Z,6.33
2018-03-25T04:46:21.477Z,6.35
2018-03-25T04:47:21.611Z,6.3
2018-03-25T04:48:21.211Z,6.38
2018-03-25T04:49:21.510Z,6.36
2018-03-25T04:50:21.234Z,6.35
2018-03-25T04:51:21.247Z,6.36
2018-03-25T04:52:21.551Z,6.35
2018-03-25T04:53:21.603Z,6.38
2018-03-25T04:54:20.997Z,6.33
2018-03-25T04:55:21.294Z,6.41
2018-03-25T04:56:21.591Z,6.38
2018-03-25T04:57:21.591Z,6.36
2018-03-25T04:58:21.614Z,6.31
2018-03-25T04:59:21.622Z,6.35
2018-03-25T05:00:21.353Z,6.39
2018-03-25T05:01:21.360Z,6.33
2018-03-25T05:02:21.369Z,6.31
2018-03-25T05:03:21.720Z,6.3
2018-03-25T05:04:21.678Z,6.28
2018-03-25T05:05:21.404Z,6.33
2018-03-25T05:06:21.703Z,6.3
2018-03-25T05:07:21.425Z,6.33
2018-03-25T05:08:21.718Z,6.3
2018-03-25T05:09:21.450Z,6.28
2018-03-25T05:10:21.464Z,6.28
2018-03-25T05:11:21.761Z,6.35
2018-03-25T05:12:21.768Z,6.27
2018-03-25T05:13:21.549Z,6.22
2018-03-25T05:14:21.793Z,6.3
2018-03-25T05:15:21.801Z,6.28
2018-03-25T05:16:21.527Z,6.28
2018-03-25T05:17:21.823Z,6.28
2018-03-25T05:18:21.553Z,6.27
2018-03-25T05:19:21.645Z,6.2
2018-03-25T05:20:21.856Z,6.31
2018-03-25T05:21:21.586Z,6.27
2018-03-25T05:22:21.595Z,6.24
2018-03-25T05:23:21.893Z,6.22
2018-03-25T05:24:21.617Z,6.27
2018-03-25T05:25:21.918Z,6.28
2018-03-25T05:26:21.922Z,6.3
2018-03-25T05:27:21.931Z,6.33
2018-03-25T05:28:21.947Z,6.22
2018-03-25T05:29:21.673Z,6.2
2018-03-25T05:30:21.401Z,6.2
2018-03-25T05:31:21.996Z,6.24
2018-03-25T05:32:21.708Z,6.2
2018-03-25T05:33:22.005Z,6.2
2018-03-25T05:34:22.063Z,6.28
2018-03-25T05:35:22.069Z,6.28
2018-03-25T05:36:21.758Z,6.24
2018-03-25T05:37:22.048Z,6.28
2018-03-25T05:38:21.771Z,6.22
2018-03-25T05:39:21.788Z,6.26
2018-03-25T05:40:21.812Z,6.26
2018-03-25T05:41:22.093Z,6.33
2018-03-25T05:42:22.102Z,6.24
2018-03-25T05:43:21.553Z,6.26
2018-03-25T05:44:22.124Z,6.27
2018-03-25T05:45:22.152Z,6.24
2018-03-25T05:46:21.868Z,6.22
2018-03-25T05:47:22.233Z,6.24
2018-03-25T05:48:21.605Z,6.2
2018-03-25T05:49:22.182Z,6.24
2018-03-25T05:50:21.912Z,6.35
2018-03-25T05:51:21.921Z,6.3
2018-03-25T05:52:22.218Z,6.3
2018-03-25T05:53:22.229Z,6.27
2018-03-25T05:54:21.954Z,6.31
2018-03-25T05:55:21.761Z,6.35
2018-03-25T05:56:22.261Z,6.31
2018-03-25T05:57:22.299Z,6.33
2018-03-25T05:58:22.289Z,6.3
2018-03-25T05:59:22.290Z,6.36
2018-03-25T06:00:22.017Z,6.36
2018-03-25T06:01:22.404Z,6.31
2018-03-25T06:02:22.343Z,6.36
2018-03-25T06:03:22.386Z,6.36
2018-03-25T06:04:21.779Z,6.36
2018-03-25T06:05:22.074Z,6.35
2018-03-25T06:06:22.091Z,6.39
2018-03-25T06:07:22.384Z,6.3
2018-03-25T06:08:22.443Z,6.3
2018-03-25T06:09:22.412Z,6.36
2018-03-25T06:10:22.412Z,6.31
2018-03-25T06:11:22.432Z,6.3
2018-03-25T06:12:22.440Z,6.35
2018-03-25T06:13:21.880Z,6.33
2018-03-25T06:14:22.175Z,6.46
2018-03-25T06:15:22.492Z,6.36
2018-03-25T06:16:21.919Z,6.52
2018-03-25T06:17:22.208Z,6.45
2018-03-25T06:18:22.232Z,6.48
2018-03-25T06:19:22.309Z,6.52
2018-03-25T06:20:22.244Z,6.48
2018-03-25T06:21:22.539Z,6.51
2018-03-25T06:22:22.461Z,6.51
2018-03-25T06:23:22.600Z,6.57
2018-03-25T06:24:22.572Z,6.57
2018-03-25T06:25:22.598Z,6.54
2018-03-25T06:26:22.595Z,6.56
2018-03-25T06:27:22.611Z,6.57
2018-03-25T06:28:22.336Z,6.57
2018-03-25T06:29:22.629Z,6.52
2018-03-25T06:30:22.361Z,6.54
2018-03-25T06:31:22.369Z,6.52
2018-03-25T06:32:22.662Z,6.56
2018-03-25T06:33:22.672Z,6.56
2018-03-25T06:34:22.685Z,6.49
2018-03-25T06:35:22.412Z,6.63
2018-03-25T06:36:22.175Z,6.64
2018-03-25T06:37:22.715Z,6.75
2018-03-25T06:38:22.729Z,6.62
2018-03-25T06:39:22.795Z,6.62
2018-03-25T06:40:22.471Z,6.66
2018-03-25T06:41:22.480Z,6.6
2018-03-25T06:42:22.776Z,6.67
2018-03-25T06:43:22.785Z,6.67
2018-03-25T06:44:22.844Z,6.66
2018-03-25T06:45:22.809Z,6.64
2018-03-25T06:46:22.819Z,6.74
2018-03-25T06:47:22.827Z,6.75
2018-03-25T06:48:22.560Z,6.74
2018-03-25T06:49:22.572Z,6.7
2018-03-25T06:50:22.581Z,6.75
2018-03-25T06:51:22.591Z,6.74
2018-03-25T06:52:22.884Z,6.7
2018-03-25T06:53:22.905Z,6.78
2018-03-25T06:54:22.924Z,6.82
2018-03-25T06:55:22.637Z,6.82
2018-03-25T06:56:22.932Z,6.85
2018-03-25T06:57:22.657Z,6.89
2018-03-25T06:58:22.667Z,6.93
2018-03-25T06:59:22.969Z,6.88
2018-03-25T07:00:22.410Z,6.88
2018-03-25T07:01:22.989Z,6.92
2018-03-25T07:02:22.723Z,6.89
2018-03-25T07:03:23.006Z,7.06
2018-03-25T07:04:23.073Z,7.05
2018-03-25T07:05:23.039Z,7.02
2018-03-25T07:06:23.045Z,7.11
2018-03-25T07:07:23.065Z,7.2
2018-03-25T07:08:22.786Z,7.15
2018-03-25T07:09:23.086Z,7.15
2018-03-25T07:10:22.534Z,7.23
2018-03-25T07:11:23.108Z,7.21
2018-03-25T07:12:22.835Z,7.15
2018-03-25T07:13:23.136Z,7.2
2018-03-25T07:14:22.856Z,7.32
2018-03-25T07:15:23.145Z,7.28
2018-03-25T07:16:23.154Z,7.29
2018-03-25T07:17:23.183Z,7.32
2018-03-25T07:18:23.196Z,7.35
2018-03-25T07:19:22.965Z,7.48
2018-03-25T07:20:23.209Z,7.39
2018-03-25T07:21:22.934Z,7.5
2018-03-25T07:22:22.947Z,7.48
2018-03-25T07:23:22.964Z,7.51
2018-03-25T07:24:22.970Z,7.5
2018-03-25T07:25:22.983Z,7.6
2018-03-25T07:26:23.283Z,7.6
2018-03-25T07:27:23.016Z,7.69
2018-03-25T07:28:22.728Z,7.67
2018-03-25T07:29:23.315Z,7.77
2018-03-25T07:30:23.322Z,7.69
2018-03-25T07:31:23.331Z,7.77
2018-03-25T07:32:23.339Z,7.76
2018-03-25T07:33:23.068Z,7.82
2018-03-25T07:34:22.835Z,7.83
2018-03-25T07:35:23.099Z,7.87
2018-03-25T07:36:23.104Z,7.93
2018-03-25T07:37:23.422Z,7.93
2018-03-25T07:38:23.414Z,8.01
2018-03-25T07:39:23.193Z,7.98
2018-03-25T07:40:23.431Z,8.01
2018-03-25T07:41:23.170Z,8.01
2018-03-25T07:42:23.181Z,8.05
2018-03-25T07:43:23.473Z,8.06
2018-03-25T07:44:22.965Z,8.09
2018-03-25T07:45:23.214Z,8.09
2018-03-25T07:46:23.299Z,8.24
2018-03-25T07:47:23.720Z,8.13
2018-03-25T07:48:23.531Z,8.2
2018-03-25T07:49:23.255Z,8.16
2018-03-25T07:50:23.557Z,8.23
2018-03-25T07:51:23.569Z,8.2
2018-03-25T07:52:23.323Z,8.26
2018-03-25T07:53:23.587Z,8.23
2018-03-25T07:54:23.605Z,8.23
2018-03-25T07:55:23.043Z,8.33
2018-03-25T07:56:23.340Z,8.28
2018-03-25T07:57:23.363Z,8.31
2018-03-25T07:58:23.362Z,8.37
2018-03-25T07:59:23.405Z,8.34
2018-03-25T08:00:23.387Z,8.45
2018-03-25T08:01:23.400Z,8.53
2018-03-25T08:02:23.415Z,8.49
2018-03-25T08:03:23.421Z,8.53
2018-03-25T08:04:23.725Z,8.64
2018-03-25T08:05:23.447Z,8.63
2018-03-25T08:06:23.740Z,8.63
2018-03-25T08:07:23.757Z,8.7
2018-03-25T08:08:23.773Z,8.69
2018-03-25T08:09:23.778Z,8.69
2018-03-25T08:10:23.510Z,8.85
2018-03-25T08:11:23.803Z,8.78
2018-03-25T08:12:23.544Z,8.85
2018-03-25T08:13:23.541Z,8.91
2018-03-25T08:14:23.557Z,8.85
2018-03-25T08:15:23.869Z,8.95
2018-03-25T08:16:23.578Z,9.06
2018-03-25T08:17:23.883Z,9.08
2018-03-25T08:18:23.884Z,9.08
2018-03-25T08:19:23.895Z,9.19
2018-03-25T08:20:23.925Z,9.18
2018-03-25T08:21:23.923Z,9.23
2018-03-25T08:22:23.930Z,9.28
2018-03-25T08:23:23.947Z,9.36
2018-03-25T08:24:23.682Z,9.41
2018-03-25T08:25:23.693Z,9.43
2018-03-25T08:26:23.417Z,9.46
2018-03-25T08:27:23.715Z,9.44
2018-03-25T08:28:24.007Z,9.48
2018-03-25T08:29:23.750Z,9.59
2018-03-25T08:30:23.801Z,9.61
2018-03-25T08:31:24.045Z,9.68
2018-03-25T08:32:23.780Z,9.64
2018-03-25T08:33:24.071Z,9.66
2018-03-25T08:34:24.082Z,9.77
2018-03-25T08:35:24.143Z,9.74
2018-03-25T08:36:23.827Z,9.77
2018-03-25T08:37:23.846Z,9.8
2018-03-25T08:38:24.130Z,9.77
2018-03-25T08:39:24.148Z,9.84
2018-03-25T08:40:23.593Z,9.92
2018-03-25T08:41:23.885Z,9.99
2018-03-25T08:42:23.614Z,10.07
2018-03-25T08:43:24.194Z,10.09
2018-03-25T08:44:23.927Z,10.09
2018-03-25T08:45:23.988Z,10.13
2018-03-25T08:46:24.230Z,10.13
2018-03-25T08:47:23.964Z,10.28
2018-03-25T08:48:23.979Z,10.22
2018-03-25T08:49:23.986Z,10.37
2018-03-25T08:50:24.002Z,10.28
2018-03-25T08:51:24.020Z,10.35
2018-03-25T08:52:24.312Z,10.41
2018-03-25T08:53:24.322Z,10.49
2018-03-25T08:54:24.332Z,10.57
2018-03-25T08:55:24.066Z,10.57
2018-03-25T08:56:23.795Z,10.63
2018-03-25T08:57:24.382Z,10.67
2018-03-25T08:58:24.108Z,10.71
2018-03-25T08:59:24.123Z,10.74
2018-03-25T09:00:24.415Z,10.74
2018-03-25T09:01:24.426Z,10.78
2018-03-25T09:02:24.162Z,10.79
2018-03-25T09:03:23.907Z,10.79
2018-03-25T09:04:24.183Z,10.82
2018-03-25T09:05:24.477Z,10.9
2018-03-25T09:06:24.494Z,10.99
2018-03-25T09:07:24.222Z,10.94
2018-03-25T09:08:24.234Z,11.02
2018-03-25T09:09:24.297Z,11.12
2018-03-25T09:10:24.260Z,11.12
2018-03-25T09:11:24.567Z,11.17
2018-03-25T09:12:24.580Z,11.26
2018-03-25T09:13:24.581Z,11.32
2018-03-25T09:14:24.595Z,11.37
2018-03-25T09:15:24.046Z,11.4
2018-03-25T09:16:24.338Z,11.47
2018-03-25T09:17:24.637Z,11.47
2018-03-25T09:18:24.364Z,11.54
2018-03-25T09:19:24.378Z,11.69
2018-03-25T09:20:24.689Z,11.63
2018-03-25T09:21:24.409Z,11.72
2018-03-25T09:22:24.715Z,11.81
2018-03-25T09:23:24.436Z,11.81
2018-03-25T09:24:24.165Z,11.9
2018-03-25T09:25:24.754Z,11.9
2018-03-25T09:26:24.472Z,11.9
2018-03-25T09:27:24.490Z,12.03
2018-03-25T09:28:24.502Z,12.06
2018-03-25T09:29:24.796Z,12.13
2018-03-25T09:30:24.967Z,12.07
2018-03-25T09:31:24.839Z,12.12
2018-03-25T09:32:24.556Z,12.17
2018-03-25T09:33:24.570Z,12.24
2018-03-25T09:34:24.585Z,12.24
2018-03-25T09:35:24.316Z,12.28
2018-03-25T09:36:24.329Z,12.37
2018-03-25T09:37:24.944Z,12.43
2018-03-25T09:38:24.641Z,12.29
2018-03-25T09:39:24.655Z,12.43
2018-03-25T09:40:24.384Z,12.46
2018-03-25T09:41:24.684Z,12.46
2018-03-25T09:42:24.694Z,12.5
2018-03-25T09:43:24.709Z,12.65
2018-03-25T09:44:24.727Z,12.65
2018-03-25T09:45:24.738Z,12.72
2018-03-25T09:46:25.037Z,12.68
2018-03-25T09:47:25.055Z,12.67
2018-03-25T09:48:25.071Z,12.78
2018-03-25T09:49:25.080Z,12.78
2018-03-25T09:50:25.117Z,12.78
2018-03-25T09:51:25.107Z,12.91
2018-03-25T09:52:24.838Z,12.93
2018-03-25T09:53:24.616Z,13.03
2018-03-25T09:54:25.159Z,13.05
2018-03-25T09:55:25.210Z,13.03
2018-03-25T09:56:24.894Z,13.09
2018-03-25T09:57:24.909Z,13.22
2018-03-25T09:58:24.926Z,13.18
2018-03-25T09:59:24.939Z,13.25
2018-03-25T10:00:25.238Z,13.35
2018-03-25T10:01:25.263Z,13.44
2018-03-25T10:02:24.705Z,13.53
2018-03-25T10:03:25.149Z,13.62
2018-03-25T10:04:25.305Z,13.68
2018-03-25T10:05:25.028Z,13.63
2018-03-25T10:06:25.384Z,13.77
2018-03-25T10:07:24.780Z,13.78
2018-03-25T10:08:25.359Z,13.75
2018-03-25T10:09:25.088Z,13.78
2018-03-25T10:10:24.817Z,13.81
2018-03-25T10:11:25.474Z,13.78
2018-03-25T10:12:25.134Z,13.83
2018-03-25T10:13:25.144Z,13.85
2018-03-25T10:14:25.461Z,13.87
2018-03-25T10:15:25.189Z,13.87
2018-03-25T10:16:25.485Z,13.95
2018-03-25T10:17:25.491Z,13.95
2018-03-25T10:18:25.508Z,13.93
2018-03-25T10:19:25.531Z,14.08
2018-03-25T10:20:25.539Z,14.05
2018-03-25T10:21:25.552Z,14.14
2018-03-25T10:22:25.587Z,14.18
2018-03-25T10:23:25.295Z,14.18
2018-03-25T10:24:25.600Z,14.17
2018-03-25T10:25:25.393Z,14.29
2018-03-25T10:26:25.348Z,14.3
2018-03-25T10:27:25.644Z,14.23
2018-03-25T10:28:25.660Z,14.32
2018-03-25T10:29:25.396Z,14.44
2018-03-25T10:30:25.458Z,14.36
2018-03-25T10:31:25.702Z,14.45
2018-03-25T10:32:25.444Z,14.45
2018-03-25T10:33:25.741Z,14.43
2018-03-25T10:34:25.516Z,14.45
2018-03-25T10:35:25.968Z,14.37
2018-03-25T10:36:25.784Z,14.43
2018-03-25T10:37:25.800Z,14.5
2018-03-25T10:38:25.826Z,14.54
2018-03-25T10:39:25.548Z,14.47
2018-03-25T10:40:25.849Z,14.58
2018-03-25T10:41:25.575Z,14.65
2018-03-25T10:42:25.595Z,14.62
2018-03-25T10:43:25.325Z,14.63
2018-03-25T10:44:25.357Z,14.69
2018-03-25T10:45:25.925Z,14.72
2018-03-25T10:46:25.954Z,14.72
2018-03-25T10:47:25.956Z,14.72
2018-03-25T10:48:25.405Z,14.78
2018-03-25T10:49:25.996Z,14.81
2018-03-25T10:50:26.008Z,14.85
2018-03-25T10:51:26.024Z,14.94
2018-03-25T10:52:26.034Z,14.96
2018-03-25T10:53:26.064Z,15
2018-03-25T10:54:25.789Z,14.99
2018-03-25T10:55:25.809Z,14.99
2018-03-25T10:56:25.822Z,15.06
2018-03-25T10:57:26.186Z,15.18
2018-03-25T10:58:26.134Z,15.18
2018-03-25T10:59:25.868Z,15.18
2018-03-25T11:00:26.167Z,15.17
2018-03-25T11:01:26.186Z,15.15
2018-03-25T11:02:25.918Z,15.35
2018-03-25T11:03:25.932Z,15.37
2018-03-25T11:04:26.232Z,15.43
2018-03-25T11:05:26.259Z,15.43
2018-03-25T11:06:26.263Z,15.44
2018-03-25T11:07:26.290Z,15.46
2018-03-25T11:08:26.017Z,15.59
2018-03-25T11:09:26.038Z,15.49
2018-03-25T11:10:26.049Z,15.55
2018-03-25T11:11:25.780Z,15.57
2018-03-25T11:12:25.808Z,15.64
2018-03-25T11:13:26.096Z,15.61
2018-03-25T11:14:26.395Z,15.64
2018-03-25T11:15:26.420Z,15.68
2018-03-25T11:16:26.157Z,15.62
2018-03-25T11:17:26.556Z,15.73
2018-03-25T11:18:26.467Z,15.79
2018-03-25T11:19:26.198Z,15.94
2018-03-25T11:20:26.500Z,15.88
2018-03-25T11:21:26.566Z,15.95
2018-03-25T11:22:26.533Z,15.98
2018-03-25T11:23:26.560Z,16.04
2018-03-25T11:24:26.289Z,16.12
2018-03-25T11:25:26.590Z,16.15
2018-03-25T11:26:26.598Z,16.23
2018-03-25T11:27:26.344Z,16.26
2018-03-25T11:28:26.635Z,16.2
2018-03-25T11:29:26.651Z,16.36
2018-03-25T11:30:26.395Z,16.46
2018-03-25T11:31:26.453Z,16.43
2018-03-25T11:32:26.420Z,16.36
2018-03-25T11:33:26.717Z,16.39
2018-03-25T11:34:26.454Z,16.47
2018-03-25T11:35:26.194Z,16.54
2018-03-25T11:36:26.487Z,16.5
2018-03-25T11:37:26.223Z,16.6
2018-03-25T11:38:26.804Z,16.64
2018-03-25T11:39:26.830Z,16.68
2018-03-25T11:40:26.557Z,16.65
2018-03-25T11:41:26.623Z,16.74
2018-03-25T11:42:26.882Z,16.81
2018-03-25T11:43:26.607Z,16.81
2018-03-25T11:44:26.347Z,16.86
2018-03-25T11:45:26.649Z,16.81
2018-03-25T11:46:26.947Z,16.97
2018-03-25T11:47:26.684Z,16.87
2018-03-25T11:48:26.697Z,17.01
2018-03-25T11:49:26.432Z,17.02
2018-03-25T11:50:26.733Z,16.99
2018-03-25T11:51:27.046Z,17.11
2018-03-25T11:52:26.771Z,17.05
2018-03-25T11:53:27.073Z,16.96
2018-03-25T11:54:26.805Z,17.06
2018-03-25T11:55:27.104Z,17.02
2018-03-25T11:56:26.838Z,17.11
2018-03-25T11:57:26.859Z,17.11
2018-03-25T11:58:26.895Z,17.11
2018-03-25T11:59:27.195Z,17.2
2018-03-25T12:00:26.627Z,17.19
2018-03-25T12:01:26.926Z,17.2
2018-03-25T12:02:27.234Z,17.14
2018-03-25T12:03:27.252Z,17.2
2018-03-25T12:04:26.700Z,17.23
2018-03-25T12:05:26.715Z,17.24
2018-03-25T12:06:27.313Z,17.22
2018-03-25T12:07:27.040Z,17.24
2018-03-25T12:08:27.350Z,17.33
2018-03-25T12:09:27.072Z,17.31
2018-03-25T12:10:27.384Z,17.39
2018-03-25T12:11:27.398Z,17.36
2018-03-25T12:12:27.129Z,17.31
2018-03-25T12:13:26.864Z,17.46
2018-03-25T12:14:27.192Z,17.46
2018-03-25T12:15:27.498Z,17.51
2018-03-25T12:16:27.311Z,17.54
2018-03-25T12:17:27.505Z,17.54
2018-03-25T12:18:27.551Z,17.6
2018-03-25T12:19:27.545Z,17.54
2018-03-25T12:20:27.633Z,17.56
2018-03-25T12:21:27.575Z,17.63
2018-03-25T12:22:27.598Z,17.68
2018-03-25T12:23:27.623Z,17.64
2018-03-25T12:24:27.639Z,17.64
2018-03-25T12:25:27.366Z,17.68
2018-03-25T12:26:27.385Z,17.64
2018-03-25T12:27:27.121Z,17.7
2018-03-25T12:28:27.420Z,17.72
2018-03-25T12:29:27.159Z,17.71
2018-03-25T12:30:27.786Z,17.74
2018-03-25T12:31:27.481Z,17.72
2018-03-25T12:32:27.784Z,17.76
2018-03-25T12:33:27.232Z,17.83
2018-03-25T12:34:27.541Z,17.85
2018-03-25T12:35:27.840Z,17.9
2018-03-25T12:36:27.574Z,17.9
2018-03-25T12:37:27.875Z,17.95
2018-03-25T12:38:27.899Z,18.01
2018-03-25T12:39:27.942Z,18.04
2018-03-25T12:40:27.649Z,17.97
2018-03-25T12:41:27.384Z,18.07
2018-03-25T12:42:27.693Z,18.11
2018-03-25T12:43:27.990Z,18.1
2018-03-25T12:44:27.738Z,18.08
2018-03-25T12:45:27.755Z,18.11
2018-03-25T12:46:27.759Z,18.03
2018-03-25T12:47:28.062Z,18.22
2018-03-25T12:48:28.089Z,18.2
2018-03-25T12:49:27.824Z,18.16
2018-03-25T12:50:28.123Z,18.2
2018-03-25T12:51:27.570Z,18.23
2018-03-25T12:52:28.160Z,18.33
2018-03-25T12:53:28.184Z,18.31
2018-03-25T12:54:28.195Z,18.29
2018-03-25T12:55:28.214Z,18.31
2018-03-25T12:56:27.952Z,18.37
2018-03-25T12:57:27.973Z,18.4
2018-03-25T12:58:28.267Z,18.44
2018-03-25T12:59:28.291Z,18.5
2018-03-25T13:00:28.311Z,18.47
2018-03-25T13:01:28.325Z,18.52
2018-03-25T13:02:28.345Z,18.47
2018-03-25T13:03:28.083Z,18.47
2018-03-25T13:04:28.110Z,18.52
2018-03-25T13:05:28.406Z,18.6
2018-03-25T13:06:28.423Z,18.62
2018-03-25T13:07:27.875Z,18.56
2018-03-25T13:08:28.466Z,18.65
2018-03-25T13:09:28.489Z,18.73
2018-03-25T13:10:28.510Z,18.66
2018-03-25T13:11:28.234Z,18.7
2018-03-25T13:12:28.547Z,18.78